Airfield :







YOU CAN JOIN US ON...

 
LOGIN :

Register | Disclaimer

   EN    FR    IT 

 









Legend :    VFR   Marginal VFR   IFR   Intensive IFR   Very Intensive IFR
Visi :
Ceiling :
>= 8 km
>= 3000ft
5 to 8 km
1000 to 3000 ft
1500m to 5 km
500 to 1000 ft
800 to 1500m
200 to 500 ft
< 800m
< 200 ft
Symbols :   Thunderstorms  Fog  Heavy snow  Heavy precipitations  Wind > 20 kt







- Airport Elevation : 20 ft
- IATA code : BOS


KBOS - General Edward Lawrence Logan International

CURRENT METAR :
  • 221315Z 02011KT 3SM BR OVC005 13/11 A3011 RMK AO2 SFC VIS 6 VIS NE-SE 1 1/2 T01280106

EXPIRED METARs :
  • 221302Z 01009KT 3SM BR OVC003 12/11 A3011 RMK AO2 SFC VIS 6 VIS NE-SE 1 1/2 T01220106
  • 221254Z 03012KT 1/2SM R04R/P6000FT BR OVC002 12/10 A3011 RMK AO2 SFC VIS 1 1/2 SLP194 VIS SW-N 5 T01170100
  • 221217Z 07006KT 1/2SM R04R/P6000FT FG BKN004 OVC100 11/09 A3011 RMK AO2 VIS SW-N 1 1/2 T01110094
  • 221154Z 08004KT 6SM BR FEW002 BKN100 BKN200 11/09 A3011 RMK AO2 SLP195 VIS NE-S 1 3/4 70001 T01060089 10122 20094 53009
  • 221143Z 07005KT 6SM BR FEW002 BKN100 BKN200 10/08 A3010 RMK AO2 VIS NE-S 1 3/4 T01000083
  • 221133Z 07004KT 1/2SM R04R/2800VP6000FT FG FEW002 BKN100 BKN200 10/09 A3010 RMK AO2 VIS SW-N 7 T01000089
  • 221126Z 08007KT 6SM R04R/2800VP6000FT BR FEW002 BKN100 BKN200 10/09 A3010 RMK AO2 VIS NE-SE 1/2 T01000089
  • 221054Z 00000KT 8SM SCT140 BKN200 BKN250 10/09 A3009 RMK AO2 VIS 2 E SLP189 VIS NE-SE 1 3/4 T01000089

TAF KBOS
Valid from the 22 at 12:00 until the 23 at 18:00 UTC


221131Z 2212/2318 03006KT P6SM OVC080
FM221700 04010G19KT 3SM -SHRA OVC008
FM222000 04012G24KT 3SM SHRA BR OVC008
FM230500 02010G22KT 1SM -SHRA OVC003
FM231000 01011G17KT 3SM -SHRA OVC008
FM231300 01010G19KT 6SM BR VCSH OVC008
FM231500 01009KT P6SM OVC015
KZBW FIR / North America



MET'MAP, your aeronautical weather chart ! - Copyright ORBIFLY December 2007 - Disclaimer

ORBIFLY MET'MAP TEAM :

Programming & Development : Alexandra Zaïnal
Concept & Development : Baudouin d'Aumeries
Co-Development & Prog : Marc-Olivier Méhu
Technical & hardware support : Manuel Goepfert

Contact : metmap@orbifly.com




SOURCES & CREDITS :

   NOAA